Terminal Aerodrome Forecast
Issued by NWS

Home | Current Version | Previous Version | Text Only | Print | Product List | Glossary On
Versions: 1 2 3 4 5 6 7 8 9 10 11 12
000
FTUS45 KREV 260500
TAFMMH
TAF
KMMH 260530Z 2606/2706 14007G17KT P6SM FEW080 SCT180
     FM261000 14007KT P6SM SCT180
     FM261600 08008KT P6SM FEW180
     FM262000 14090KT P6SM SKC
      AMD NOT SKED 2606/2614=

USA.gov is the U.S. government's official web portal to all federal, state and local government web resources and services.